KASX/ASX METAR and TAF weather

Enter ICAO airport designator
Station Type Date Time Source
KASX METAR 2019/11/18 10:53 UTC NOAA

KASX 181053Z AUTO 22005KT 10SM OVC016 M01/M03 A2977 RMK AO2 SLP092 T10111033


Station Type Date Time Source
KASX Decoded METAR 2019/11/18 10:53 UTC NOAA

ASHLAND KENNEDY MEMORIAL, WI, United States (KASX) 46-33N 090-55W 251M
Nov 18, 2019 - 05:53 AM EST / 2019.11.18 1053 UTC
Wind: from the SW (220 degrees) at 6 MPH (5 KT):0
Visibility: 10 mile(s):0
Sky conditions: overcast
Temperature: 30.0 F (-1.1 C)
Windchill: 23 F (-5 C):1
Dew Point: 26.1 F (-3.3 C)
Relative Humidity: 84%
Pressure (altimeter): 29.77 in. Hg (1008 hPa)
ob: KASX 181053Z AUTO 22005KT 10SM OVC016 M01/M03 A2977 RMK AO2 SLP092 T10111033
cycle: 11

Station Type Date Time Source
KASX TAF UTC NOAA

Error!

Example: see airport list